Time;durP1;ratioP1;P1;durP2;ratioP2;P2;SDS_P1;SDS_P2;PMS_P1;PMS_P2;Temp;Humidity;BMP_temperature;BMP_pressure;BME280_temperature;BME280_humidity;BME280_pressure;Samples;Min_cycle;Max_cycle;Signal;HPM_P1;HPM_P2
2022/03/22 00:00:49;;;;;;;100.05;45.60;;;;;;;0.87;48.62;102423.91;5109046;28;20070;-75
2022/03/22 00:03:15;;;;;;;113.07;46.90;;;;;;;0.80;48.86;102414.34;5110247;28;20031;-75
2022/03/22 00:05:42;;;;;;;113.10;46.08;;;;;;;0.83;48.76;102423.97;5109018;28;20027;-75
2022/03/22 00:08:09;;;;;;;103.70;46.22;;;;;;;0.80;48.46;102416.97;5109167;28;20379;-75
2022/03/22 00:10:36;;;;;;;107.70;46.33;;;;;;;0.76;48.77;102412.63;5108619;28;20023;-75
2022/03/22 00:13:05;;;;;;;115.78;46.85;;;;;;;0.74;48.71;102424.97;5110151;28;20110;-75
2022/03/22 00:15:33;;;;;;;112.38;46.90;;;;;;;0.68;48.84;102419.78;5108357;28;20030;-75
2022/03/22 00:17:59;;;;;;;107.95;46.97;;;;;;;0.70;48.72;102431.22;5110055;28;20506;-75
2022/03/22 00:20:24;;;;;;;109.70;47.53;;;;;;;0.56;48.79;102404.13;5110299;28;20054;-75
2022/03/22 00:22:50;;;;;;;104.28;43.95;;;;;;;0.57;48.58;102415.53;5110110;28;20111;-75
2022/03/22 00:25:16;;;;;;;99.25;43.13;;;;;;;0.54;49.13;102419.09;5110482;28;20080;-75
2022/03/22 00:27:53;;;;;;;96.18;42.88;;;;;;;0.57;49.02;102429.63;5111779;28;20062;-74
2022/03/22 00:30:31;;;;;;;99.70;43.72;;;;;;;0.56;48.71;102434.94;5112572;28;20085;-75
2022/03/22 00:32:59;;;;;;;111.30;46.22;;;;;;;0.52;49.07;102435.88;5114233;28;20461;-75
2022/03/22 00:35:27;;;;;;;101.38;42.85;;;;;;;0.44;48.83;102422.75;5114133;28;20700;-75
2022/03/22 00:37:54;;;;;;;99.50;42.05;;;;;;;0.38;48.95;102419.34;5114008;28;20023;-75
2022/03/22 00:40:24;;;;;;;100.45;44.90;;;;;;;0.43;48.99;102428.94;5111796;28;20545;-75
2022/03/22 00:42:53;;;;;;;88.88;40.58;;;;;;;0.35;49.32;102419.38;5111390;28;20027;-75
2022/03/22 00:45:21;;;;;;;92.88;42.88;;;;;;;0.39;49.43;102431.63;5112635;28;20028;-75
2022/03/22 00:47:48;;;;;;;102.18;41.38;;;;;;;0.27;49.87;102408.91;5113501;28;20455;-75
2022/03/22 00:50:16;;;;;;;81.20;37.15;;;;;;;0.35;49.39;102428.16;5113905;28;20023;-75
2022/03/22 00:52:43;;;;;;;77.35;34.47;;;;;;;0.32;49.07;102424.69;5112435;28;20089;-75
2022/03/22 00:55:10;;;;;;;76.95;33.35;;;;;;;0.30;49.06;102426.47;5110935;28;20501;-75
2022/03/22 00:57:36;;;;;;;66.38;31.80;;;;;;;0.21;49.19;102416.91;5113406;28;20463;-75
2022/03/22 01:00:06;;;;;;;76.28;33.83;;;;;;;0.28;49.25;102429.13;5113907;28;20031;-75
2022/03/22 01:02:35;;;;;;;80.38;34.47;;;;;;;0.27;49.82;102432.66;5112128;28;20039;-75
2022/03/22 01:05:03;;;;;;;77.32;35.47;;;;;;;0.29;50.00;102430.00;5112380;28;20032;-75
2022/03/22 01:07:29;;;;;;;89.22;35.88;;;;;;;0.20;50.30;102425.72;5113091;28;20044;-75
2022/03/22 01:09:55;;;;;;;91.38;36.58;;;;;;;0.23;50.03;102424.81;5113371;27;20028;-75
2022/03/22 01:12:21;;;;;;;87.10;38.60;;;;;;;0.21;50.01;102429.22;5113265;28;20027;-75
2022/03/22 01:14:46;;;;;;;92.93;38.85;;;;;;;0.09;50.09;102411.75;5113281;28;20016;-75
2022/03/22 01:17:12;;;;;;;89.38;37.67;;;;;;;0.15;50.35;102424.88;5110948;28;20404;-75
2022/03/22 01:19:39;;;;;;;84.38;36.85;;;;;;;-0.04;50.26;102394.34;5111855;28;20471;-75
2022/03/22 01:22:05;;;;;;;85.53;36.17;;;;;;;0.03;50.39;102410.97;5113055;28;20111;-75
2022/03/22 01:24:32;;;;;;;95.60;36.95;;;;;;;0.10;50.45;102421.44;5113123;28;20527;-74
2022/03/22 01:26:57;;;;;;;81.63;33.58;;;;;;;0.09;50.55;102421.47;5111734;28;20039;-74
2022/03/22 01:29:23;;;;;;;83.72;32.60;;;;;;;0.08;50.37;102419.69;5113070;28;20375;-75
2022/03/22 01:31:49;;;;;;;81.57;34.55;;;;;;;0.04;50.59;102421.50;5111747;28;20126;-74
2022/03/22 01:34:15;;;;;;;84.75;34.85;;;;;;;0.06;50.91;102426.78;5111971;28;20478;-74
2022/03/22 01:36:41;;;;;;;88.97;37.03;;;;;;;0.00;50.63;102423.31;5112024;28;20463;-74
2022/03/22 01:39:07;;;;;;;86.47;35.40;;;;;;;-0.03;50.54;102419.84;5113073;27;20119;-74
2022/03/22 01:41:32;;;;;;;85.60;35.33;;;;;;;-0.07;50.88;102420.75;5112679;28;20053;-74
2022/03/22 01:43:59;;;;;;;82.75;36.20;;;;;;;-0.08;50.72;102416.38;5112836;28;20020;-74
2022/03/22 01:46:24;;;;;;;91.53;35.40;;;;;;;-0.24;50.81;102391.94;5111346;28;20237;-74
2022/03/22 01:48:51;;;;;;;78.72;35.80;;;;;;;-0.12;50.93;102417.28;5111358;28;20119;-75
2022/03/22 01:51:20;;;;;;;80.30;33.22;;;;;;;-0.24;50.85;102396.31;5112700;28;20558;-75
2022/03/22 01:53:47;;;;;;;71.22;31.27;;;;;;;-0.29;51.15;102388.47;5111640;28;20719;-75
2022/03/22 01:56:13;;;;;;;68.07;31.10;;;;;;;-0.27;51.04;102388.44;5112758;28;20075;-74
2022/03/22 01:58:39;;;;;;;67.35;28.92;;;;;;;-0.19;51.15;102416.47;5112399;28;20040;-74
2022/03/22 02:06:33;;;;;;;68.75;29.35;;;;;;;-0.25;51.46;102402.50;5112432;28;20440;-74
2022/03/22 02:08:59;;;;;;;69.47;28.45;;;;;;;-0.26;51.50;102406.00;5111170;28;20027;-74
2022/03/22 02:11:25;;;;;;;69.57;31.45;;;;;;;-0.30;51.54;102407.81;5110902;28;20024;-74
2022/03/22 02:13:51;;;;;;;84.10;32.47;;;;;;;-0.42;51.74;102378.09;5112120;28;20024;-75
2022/03/22 02:16:16;;;;;;;86.38;35.28;;;;;;;-0.38;51.96;102390.34;5112146;28;20064;-74
2022/03/22 02:18:42;;;;;;;82.57;34.47;;;;;;;-0.39;51.74;102388.56;5111728;28;20035;-74
2022/03/22 02:21:18;;;;;;;86.50;35.28;;;;;;;-0.40;51.76;102390.34;5112270;28;20672;-74
2022/03/22 02:23:55;;;;;;;79.40;34.20;;;;;;;-0.45;51.56;102386.03;5110661;28;20027;-75
2022/03/22 02:26:22;;;;;;;86.97;34.70;;;;;;;-0.52;51.56;102369.38;5109516;28;20503;-75
2022/03/22 02:28:53;;;;;;;78.60;33.75;;;;;;;-0.43;52.26;102392.13;5110245;28;20065;-75
2022/03/22 02:31:27;;;;;;;82.80;37.20;;;;;;;-0.51;52.29;102384.28;5110527;28;20092;-75
2022/03/22 02:33:52;;;;;;;;;;;;;;;-0.47;52.10;102391.31;5112112;28;20035;-76
2022/03/22 02:36:18;;;;;;;98.78;33.22;;;;;;;-0.50;52.44;102390.44;5110481;28;19911;-75
2022/03/22 02:38:43;;;;;;;79.82;34.22;;;;;;;-0.48;52.23;102394.81;5111656;28;20030;-75
2022/03/22 02:41:21;;;;;;;76.95;33.17;;;;;;;-0.66;52.14;102368.66;5110424;28;20106;-75
2022/03/22 02:43:48;;;;;;;95.65;36.60;;;;;;;-0.52;52.44;102393.09;5109806;28;20028;-75
2022/03/22 02:46:14;;;;;;;101.78;41.03;;;;;;;-0.50;52.58;102395.72;5109013;28;20036;-75
2022/03/22 02:48:40;;;;;;;110.40;45.97;;;;;;;-0.52;52.31;102384.31;5110466;28;20019;-75
2022/03/22 02:51:06;;;;;;;120.95;46.47;;;;;;;-0.57;52.63;102375.59;5110185;28;20142;-75
2022/03/22 02:53:31;;;;;;;127.18;48.13;;;;;;;-0.61;52.70;102373.88;5111449;28;20046;-75
2022/03/22 02:55:57;;;;;;;118.50;48.20;;;;;;;-0.57;52.57;102388.75;5109913;28;20027;-75
2022/03/22 02:58:22;;;;;;;117.10;47.00;;;;;;;-0.65;52.77;102382.66;5111279;28;20040;-75
2022/03/22 03:00:48;;;;;;;117.72;47.05;;;;;;;-0.61;53.21;102393.19;5111360;28;20102;-75
2022/03/22 03:03:14;;;;;;;104.70;44.15;;;;;;;-0.61;52.79;102392.31;5111278;28;20027;-75
2022/03/22 03:05:39;;;;;;;116.43;44.30;;;;;;;-0.67;52.98;102387.94;5109801;28;20032;-75
2022/03/22 03:08:06;;;;;;;94.60;40.33;;;;;;;-0.66;53.19;102389.72;5111341;28;20020;-75
2022/03/22 03:10:32;;;;;;;92.80;39.78;;;;;;;-0.72;53.04;102383.63;5106681;28;20051;-74
2022/03/22 03:13:00;;;;;;;104.07;39.95;;;;;;;-0.70;52.77;102403.81;5111046;28;20539;-75
2022/03/22 03:15:25;;;;;;;99.85;42.08;;;;;;;-0.71;52.73;102391.50;5109558;28;21326;-74
2022/03/22 03:17:51;;;;;;;96.03;38.53;;;;;;;-0.72;53.16;102392.41;5110934;28;20022;-75
2022/03/22 03:20:16;;;;;;;94.43;38.17;;;;;;;-0.76;53.37;102393.34;5111088;28;20027;-75
2022/03/22 03:22:41;;;;;;;83.18;37.08;;;;;;;-0.73;53.39;102400.31;5109452;28;20058;-75
2022/03/22 03:25:08;;;;;;;86.95;35.47;;;;;;;-0.73;53.26;102393.31;5111037;28;20094;-76
2022/03/22 03:27:34;;;;;;;85.80;35.97;;;;;;;-0.75;53.36;102399.44;5109243;28;20050;-74
2022/03/22 03:29:59;;;;;;;73.00;33.20;;;;;;;-0.77;53.84;102399.47;5110738;28;20471;-75
2022/03/22 03:32:25;;;;;;;74.63;32.83;;;;;;;-0.76;53.93;102392.44;5111110;28;20035;-75
2022/03/22 03:34:50;;;;;;;70.30;30.40;;;;;;;-0.87;54.00;102392.53;5107774;28;20066;-75
2022/03/22 03:37:16;;;;;;;77.38;30.75;;;;;;;-0.87;53.54;102395.16;5109388;28;20031;-75
2022/03/22 03:39:43;;;;;;;73.80;31.40;;;;;;;-0.80;53.34;102401.28;5109767;28;20110;-75
2022/03/22 03:42:09;;;;;;;61.72;28.45;;;;;;;-0.89;53.52;102394.31;5108153;28;20027;-75
2022/03/22 03:47:22;;;;;;;62.28;28.08;;;;;;;-0.95;54.13;102388.22;5108397;28;20552;-75
2022/03/22 03:49:57;;;;;;;54.17;26.63;;;;;;;-0.91;53.62;102401.34;5119068;27;20102;-75
2022/03/22 03:52:30;;;;;;;59.70;26.65;;;;;;;-0.93;53.27;102408.38;5115183;27;20051;-75
2022/03/22 03:54:57;;;;;;;58.03;26.65;;;;;;;-0.92;53.41;102409.25;5110720;27;20047;-75
2022/03/22 03:57:24;;;;;;;68.78;28.70;;;;;;;-1.04;53.91;102389.16;5110447;28;20509;-74
2022/03/22 03:59:51;;;;;;;57.83;27.15;;;;;;;-0.97;53.68;102405.81;5110270;27;20482;-75
2022/03/22 04:02:17;;;;;;;66.93;29.35;;;;;;;-1.01;54.14;102398.78;5120303;27;20110;-75
2022/03/22 04:04:44;;;;;;;62.53;27.83;;;;;;;-1.02;54.01;102407.59;5108875;28;20062;-75
2022/03/22 04:07:12;;;;;;;59.05;26.25;;;;;;;-1.05;54.09;102407.59;5111036;27;20019;-75
2022/03/22 04:09:39;;;;;;;50.10;26.25;;;;;;;-1.07;53.91;102404.97;5115003;27;20031;-75
2022/03/22 04:12:05;;;;;;;60.22;27.58;;;;;;;-1.15;54.13;102398.03;5109252;28;20084;-75
2022/03/22 04:14:31;;;;;;;67.18;28.10;;;;;;;-1.12;54.16;102406.78;5125482;27;20537;-74
2022/03/22 04:16:57;;;;;;;56.22;26.15;;;;;;;-1.06;53.93;102411.13;5114947;28;20122;-75
2022/03/22 04:19:23;;;;;;;56.15;27.85;;;;;;;-1.17;53.79;102395.41;5109228;28;20034;-75
2022/03/22 04:21:48;;;;;;;57.28;27.92;;;;;;;-1.10;53.94;102406.78;5111879;28;20080;-75
2022/03/22 04:24:14;;;;;;;57.58;27.55;;;;;;;-1.07;53.91;102415.50;5119283;27;20186;-75
2022/03/22 04:26:42;;;;;;;53.45;25.65;;;;;;;-1.10;53.73;102414.69;5116081;28;20514;-75
2022/03/22 04:34:39;;;;;;;85.53;28.05;;;;;;;-1.19;53.86;102399.78;5112949;28;20038;-75
2022/03/22 04:37:05;;;;;;;79.68;27.85;;;;;;;-1.22;54.06;102407.75;5118023;28;20057;-75
2022/03/22 04:39:31;;;;;;;60.45;27.13;;;;;;;-1.16;54.33;102419.97;5110671;27;20043;-75
2022/03/22 04:41:59;;;;;;;70.20;28.98;;;;;;;-1.20;54.29;102426.13;5107795;28;20031;-75
2022/03/22 04:44:29;;;;;;;59.70;26.58;;;;;;;-1.24;54.05;102420.03;5109366;28;20463;-75
2022/03/22 04:46:56;;;;;;;61.83;27.75;;;;;;;-1.31;54.44;102415.69;5108528;28;20032;-75
2022/03/22 04:49:23;;;;;;;66.80;27.92;;;;;;;-1.22;54.68;102430.53;5108522;28;20024;-75
2022/03/22 04:57:17;;;;;;;64.25;27.85;;;;;;;-1.24;54.66;102422.66;5108030;28;20614;-72
2022/03/22 04:59:43;;;;;;;50.00;27.50;;;;;;;-1.22;54.90;102438.44;5109102;28;20115;-72
2022/03/22 05:02:12;;;;;;;59.88;28.10;;;;;;;-1.26;54.48;102432.31;5108232;28;20057;-73
2022/03/22 05:04:38;;;;;;;73.68;29.38;;;;;;;-1.23;54.78;102431.44;5109336;28;20052;-72
2022/03/22 05:07:04;;;;;;;56.42;27.50;;;;;;;-1.21;54.68;102440.19;5107998;28;20431;-75
2022/03/22 05:09:30;;;;;;;73.13;29.83;;;;;;;-1.29;54.66;102428.84;5107992;28;20031;-75
2022/03/22 05:11:59;;;;;;;70.45;28.23;;;;;;;-1.20;54.67;102423.50;5109449;28;20125;-75
2022/03/22 05:14:25;;;;;;;66.18;28.83;;;;;;;-1.22;54.64;102426.16;5113203;27;20388;-75
2022/03/22 05:16:51;;;;;;;61.75;26.92;;;;;;;-1.23;54.42;102415.66;5111759;28;20030;-74
2022/03/22 05:19:18;;;;;;;62.60;28.83;;;;;;;-1.13;54.78;102435.75;5111928;28;20043;-75
2022/03/22 05:21:44;;;;;;;55.10;27.60;;;;;;;-1.07;55.28;102435.69;5112803;28;20034;-75
2022/03/22 05:24:10;;;;;;;60.60;28.77;;;;;;;-1.10;54.70;102441.84;5112120;28;20035;-75
2022/03/22 05:26:36;;;;;;;56.75;28.70;;;;;;;-1.02;55.20;102441.81;5111791;28;20043;-75
2022/03/22 05:29:05;;;;;;;56.17;28.00;;;;;;;-1.10;55.32;102427.84;5108355;27;20479;-75
2022/03/22 05:31:31;;;;;;;55.47;27.63;;;;;;;-0.92;55.06;102448.75;5105911;28;20127;-75
2022/03/22 05:33:58;;;;;;;76.35;29.45;;;;;;;-0.94;55.18;102437.34;5108565;28;20031;-75
2022/03/22 05:36:24;;;;;;;74.47;28.13;;;;;;;-0.89;55.12;102431.19;5111297;27;20416;-75
2022/03/22 05:38:49;;;;;;;69.20;28.85;;;;;;;-0.78;55.15;102445.16;5110820;28;20122;-75
2022/03/22 05:41:15;;;;;;;57.28;26.35;;;;;;;-0.69;55.34;102449.47;5111449;28;20098;-75
2022/03/22 05:43:41;;;;;;;68.78;28.50;;;;;;;-0.57;55.25;102449.38;5109651;28;20023;-74
2022/03/22 05:46:08;;;;;;;57.17;27.60;;;;;;;-0.54;55.32;102439.66;5110055;28;20038;-75
2022/03/22 05:48:34;;;;;;;53.28;26.27;;;;;;;-0.42;55.69;102449.25;5111180;28;20027;-75
2022/03/22 05:50:59;;;;;;;56.95;26.55;;;;;;;-0.43;55.35;102429.03;5108910;27;20034;-75
2022/03/22 05:53:25;;;;;;;56.50;26.40;;;;;;;-0.26;55.31;102435.88;5110060;28;20105;-75
2022/03/22 05:55:50;;;;;;;59.53;27.98;;;;;;;-0.14;55.20;102442.78;5109673;28;20421;-75
2022/03/22 05:58:16;;;;;;;58.10;27.40;;;;;;;0.01;55.23;102450.56;5110813;28;20154;-75
2022/03/22 06:00:42;;;;;;;58.80;27.02;;;;;;;0.14;55.54;102452.16;5109222;28;20084;-75
2022/03/22 06:03:07;;;;;;;73.07;25.58;;;;;;;0.28;55.32;102454.63;5109087;27;20439;-75
2022/03/22 06:05:33;;;;;;;55.10;24.52;;;;;;;0.45;54.95;102444.78;5110812;28;20071;-74
2022/03/22 06:07:59;;;;;;;54.33;24.08;;;;;;;0.75;54.36;102453.16;5112391;28;20047;-75
2022/03/22 06:10:27;;;;;;;55.65;21.63;;;;;;;1.10;53.79;102444.72;5112655;28;20069;-75
2022/03/22 06:12:54;;;;;;;39.33;19.45;;;;;;;1.38;53.09;102441.59;5112270;28;20490;-75
2022/03/22 06:15:25;;;;;;;40.63;18.77;;;;;;;1.80;52.11;102445.28;5112377;28;20039;-75
2022/03/22 06:18:00;;;;;;;40.35;18.90;;;;;;;2.16;51.12;102445.47;5112140;28;20058;-75
2022/03/22 06:20:31;;;;;;;39.42;17.85;;;;;;;2.56;50.03;102450.81;5109047;28;20062;-75
2022/03/22 06:22:57;;;;;;;34.67;17.92;;;;;;;2.93;49.28;102450.91;5110411;28;20031;-75
2022/03/22 06:25:23;;;;;;;36.65;17.95;;;;;;;3.16;48.33;102427.38;5112174;28;20110;-75
2022/03/22 06:27:50;;;;;;;35.45;18.42;;;;;;;3.56;47.23;102444.94;5110183;28;20051;-75
2022/03/22 06:30:17;;;;;;;35.05;19.02;;;;;;;3.82;46.47;102447.78;5110542;28;21491;-75
2022/03/22 06:32:45;;;;;;;33.13;17.90;;;;;;;4.13;46.13;102456.66;5110127;28;20478;-76
2022/03/22 06:35:12;;;;;;;35.88;17.52;;;;;;;4.39;45.50;102448.81;5110451;28;20035;-75
2022/03/22 06:37:38;;;;;;;40.65;19.65;;;;;;;4.70;44.98;102440.84;5110581;28;20053;-75
2022/03/22 06:40:09;;;;;;;41.72;20.33;;;;;;;5.06;43.95;102454.81;5111970;28;20034;-75
2022/03/22 06:42:36;;;;;;;41.63;19.08;;;;;;;5.30;42.85;102438.06;5109746;28;20077;-75
2022/03/22 06:45:03;;;;;;;34.85;18.50;;;;;;;5.60;42.10;102442.34;5111241;28;20019;-75
2022/03/22 06:47:29;;;;;;;44.42;19.38;;;;;;;5.85;41.74;102428.22;5111845;28;20027;-74
2022/03/22 06:49:55;;;;;;;56.38;22.30;;;;;;;6.17;40.88;102437.72;5110980;28;20019;-75
2022/03/22 06:52:20;;;;;;;41.08;20.52;;;;;;;6.49;40.01;102448.91;5111379;28;20080;-75
2022/03/22 06:54:46;;;;;;;43.80;21.90;;;;;;;6.72;39.66;102430.28;5111413;28;20027;-75
2022/03/22 06:57:11;;;;;;;32.53;19.55;;;;;;;7.00;38.98;102441.59;5111590;28;20108;-75
2022/03/22 06:59:37;;;;;;;38.35;20.98;;;;;;;7.24;38.40;102439.75;5111182;28;20703;-75
2022/03/22 07:02:04;;;;;;;36.75;22.17;;;;;;;7.45;37.76;102425.53;5109733;28;20508;-75
2022/03/22 07:04:31;;;;;;;34.60;21.58;;;;;;;7.79;37.55;102443.69;5110280;28;20050;-75
2022/03/22 07:06:57;;;;;;;38.30;22.35;;;;;;;8.03;37.55;102445.31;5107409;28;20386;-75
2022/03/22 07:09:22;;;;;;;55.05;23.70;;;;;;;8.27;36.78;102445.13;5109881;28;20019;-75
2022/03/22 07:11:51;;;;;;;37.55;21.77;;;;;;;8.53;35.95;102454.66;5109641;28;20101;-75
2022/03/22 07:14:24;;;;;;;37.83;21.63;;;;;;;8.77;36.22;102443.69;5108571;28;20025;-75
2022/03/22 07:16:50;;;;;;;43.58;23.27;;;;;;;9.03;35.74;102440.66;5109501;28;20027;-75
2022/03/22 07:19:18;;;;;;;36.95;21.80;;;;;;;9.25;35.33;102445.81;5110901;28;20028;-75
2022/03/22 07:21:44;;;;;;;39.05;23.05;;;;;;;9.52;34.51;102449.84;5110817;28;20102;-75
2022/03/22 07:24:11;;;;;;;37.78;21.25;;;;;;;9.70;34.26;102446.22;5109567;28;20058;-75
2022/03/22 07:26:37;;;;;;;39.05;22.52;;;;;;;9.98;33.99;102454.63;5110240;27;20040;-72
2022/03/22 07:29:03;;;;;;;38.20;22.02;;;;;;;10.17;33.59;102444.72;5108617;28;20360;-73
2022/03/22 07:31:30;;;;;;;35.63;21.30;;;;;;;10.44;33.60;102443.25;5110416;28;20055;-73
2022/03/22 07:33:56;;;;;;;38.78;20.65;;;;;;;10.69;32.69;102440.97;5108628;28;20035;-73
2022/03/22 07:36:22;;;;;;;34.97;20.95;;;;;;;10.93;32.41;102439.59;5110293;28;20023;-73
2022/03/22 07:38:48;;;;;;;31.85;21.35;;;;;;;11.14;32.27;102443.78;5109890;27;20020;-73
2022/03/22 07:41:14;;;;;;;34.47;20.25;;;;;;;11.41;32.16;102439.53;5110212;28;20023;-73
2022/03/22 07:43:41;;;;;;;32.85;20.00;;;;;;;11.70;31.71;102445.06;5110272;28;20475;-73
2022/03/22 07:46:07;;;;;;;32.08;20.27;;;;;;;11.83;31.56;102435.31;5108273;28;20661;-73
2022/03/22 07:48:33;;;;;;;32.45;20.35;;;;;;;12.19;30.74;102452.78;5110226;28;20085;-73
2022/03/22 07:53:44;;;;;;;31.20;20.63;;;;;;;12.76;30.09;102429.47;5110296;28;20042;-73
2022/03/22 07:56:10;;;;;;;37.60;21.08;;;;;;;13.08;29.76;102433.69;5108826;28;20452;-73
2022/03/22 07:58:36;;;;;;;29.77;19.70;;;;;;;13.60;28.82;102440.06;5108587;28;20104;-74
2022/03/22 08:01:01;;;;;;;31.38;21.70;;;;;;;14.33;28.37;102441.34;5109845;28;20035;-74
2022/03/22 08:03:26;;;;;;;29.75;20.92;;;;;;;15.13;27.40;102434.56;5110137;28;20075;-73
2022/03/22 08:05:53;;;;;;;33.95;20.95;;;;;;;16.04;26.18;102436.66;5109872;28;20039;-74
2022/03/22 08:08:18;;;;;;;40.53;21.20;;;;;;;17.07;24.69;102434.72;5108475;28;20030;-74
2022/03/22 08:10:45;;;;;;;33.45;20.25;;;;;;;18.19;23.85;102431.53;5109545;28;20028;-73
2022/03/22 08:13:11;;;;;;;30.85;20.58;;;;;;;19.44;22.79;102432.88;5108307;28;20024;-74
2022/03/22 08:15:37;;;;;;;27.75;19.70;;;;;;;20.25;21.60;102426.19;5108545;28;20077;-73
2022/03/22 08:18:03;;;;;;;33.28;20.40;;;;;;;20.86;21.08;102420.09;5108431;28;20119;-74
2022/03/22 08:20:30;;;;;;;32.85;19.92;;;;;;;21.65;20.17;102424.84;5109834;28;20164;-75
2022/03/22 08:23:03;;;;;;;26.73;18.85;;;;;;;21.96;19.58;102431.66;5108108;28;20122;-72
2022/03/22 08:25:34;;;;;;;26.07;18.10;;;;;;;22.62;19.32;102412.88;5109838;28;20098;-72
2022/03/22 08:28:02;;;;;;;26.58;17.95;;;;;;;23.13;18.75;102411.94;5109459;28;20411;-72
2022/03/22 08:30:28;;;;;;;24.65;18.38;;;;;;;23.76;18.25;102424.16;5109741;28;20626;-72
2022/03/22 08:32:57;;;;;;;27.10;17.33;;;;;;;24.06;17.88;102426.25;5109660;28;20031;-72
2022/03/22 08:35:23;;;;;;;28.90;17.85;;;;;;;24.65;17.53;102422.25;5109685;28;20125;-72
2022/03/22 08:37:49;;;;;;;23.95;16.95;;;;;;;24.86;17.20;102406.91;5109423;28;20114;-72
2022/03/22 08:40:15;;;;;;;25.67;17.65;;;;;;;25.44;16.79;102420.28;5108234;28;20027;-73
2022/03/22 08:42:45;;;;;;;22.90;17.33;;;;;;;25.62;16.61;102413.44;5107300;28;20030;-75
2022/03/22 08:45:19;;;;;;;22.42;17.15;;;;;;;25.72;16.61;102410.44;5106965;28;20024;-74
2022/03/22 08:47:46;;;;;;;23.08;16.27;;;;;;;25.97;16.31;102401.88;5110806;28;20020;-74
2022/03/22 08:50:14;;;;;;;26.70;17.27;;;;;;;26.47;15.80;102401.22;5112235;28;20115;-74
2022/03/22 08:52:41;;;;;;;28.10;17.92;;;;;;;26.52;15.79;102396.03;5112196;28;20100;-74
2022/03/22 08:55:09;;;;;;;22.92;16.35;;;;;;;27.02;15.83;102393.38;5109396;28;20846;-74
2022/03/22 08:57:35;;;;;;;21.17;16.85;;;;;;;27.14;15.33;102391.84;5110721;28;20019;-75
2022/03/22 09:00:08;;;;;;;23.60;15.85;;;;;;;27.34;15.10;102401.25;5110326;28;20023;-74
2022/03/22 09:02:38;;;;;;;16.52;14.60;;;;;;;27.64;15.24;102391.00;5111959;28;20234;-75
2022/03/22 09:07:50;;;;;;;23.30;16.13;;;;;;;28.28;14.55;102387.19;5112025;28;20027;-75
2022/03/22 09:10:18;;;;;;;18.17;15.45;;;;;;;28.69;14.31;102379.00;5113140;28;20068;-75
2022/03/22 09:12:44;;;;;;;18.70;14.88;;;;;;;28.92;14.32;102374.88;5111214;28;20027;-73
2022/03/22 09:15:11;;;;;;;23.63;15.00;;;;;;;29.14;13.77;102373.72;5113014;28;20027;-75
2022/03/22 09:17:37;;;;;;;25.10;14.32;;;;;;;29.44;13.74;102371.50;5115307;28;20023;-75
2022/03/22 09:20:03;;;;;;;17.52;14.18;;;;;;;29.46;13.55;102366.59;5114831;28;20497;-75
2022/03/22 09:22:28;;;;;;;16.52;14.52;;;;;;;29.53;13.70;102367.50;5113486;28;20051;-75
2022/03/22 09:24:54;;;;;;;19.17;14.93;;;;;;;29.70;13.65;102366.06;5110981;28;20042;-73
2022/03/22 09:27:19;;;;;;;22.45;14.88;;;;;;;29.73;13.59;102358.19;5112417;28;20051;-73
2022/03/22 09:29:45;;;;;;;20.77;13.93;;;;;;;29.72;13.27;102355.63;5112628;28;20058;-73
2022/03/22 09:32:10;;;;;;;15.88;13.05;;;;;;;29.60;13.15;102347.06;5112019;28;20038;-73
2022/03/22 09:34:36;;;;;;;19.15;14.07;;;;;;;29.69;13.06;102340.31;5112372;28;20029;-73
2022/03/22 09:37:02;;;;;;;25.27;13.40;;;;;;;29.70;13.53;102352.22;5113544;28;20054;-73
2022/03/22 09:39:27;;;;;;;25.90;13.98;;;;;;;29.63;13.30;102341.13;5112982;28;20027;-73
2022/03/22 09:41:53;;;;;;;23.05;13.75;;;;;;;29.73;13.38;102340.75;5112180;28;20016;-73
2022/03/22 09:44:19;;;;;;;23.80;13.50;;;;;;;29.82;12.93;102333.94;5112676;28;20019;-74
2022/03/22 09:46:51;;;;;;;25.05;13.40;;;;;;;29.78;13.02;102344.59;5111284;28;20048;-73
2022/03/22 09:49:17;;;;;;;20.73;13.40;;;;;;;29.93;13.22;102331.41;5142464;27;20027;-73
2022/03/22 09:51:48;;;;;;;15.07;12.73;;;;;;;29.99;13.19;102327.75;5111194;27;20039;-74
2022/03/22 09:54:16;;;;;;;23.23;13.77;;;;;;;29.97;12.99;102331.81;5109789;28;20127;-74
2022/03/22 09:56:46;;;;;;;15.27;12.10;;;;;;;30.02;12.92;102334.81;5111165;28;20015;-74
2022/03/22 09:59:14;;;;;;;27.50;15.07;;;;;;;29.29;13.22;102324.66;5110633;28;20032;-74
2022/03/22 10:01:40;;;;;;;19.73;13.70;;;;;;;29.13;13.49;102318.66;5111807;28;20031;-74
2022/03/22 10:04:09;;;;;;;24.73;14.60;;;;;;;28.21;13.88;102322.78;5112146;28;20114;-74
2022/03/22 10:06:35;;;;;;;20.48;14.27;;;;;;;27.45;14.67;102320.81;5110870;28;20122;-74
2022/03/22 10:09:05;;;;;;;23.50;14.10;;;;;;;26.44;15.43;102314.38;5112352;28;20038;-74
2022/03/22 10:11:40;;;;;;;18.48;13.65;;;;;;;25.17;15.88;102313.56;5111739;28;20518;-74
2022/03/22 10:14:08;;;;;;;20.58;13.30;;;;;;;24.20;16.70;102318.56;5112402;28;20030;-74
2022/03/22 10:16:43;;;;;;;22.42;14.60;;;;;;;;;;5110085;28;20424;-74
2022/03/22 10:19:26;;;;;;;24.40;14.50;;;;;;;22.42;18.14;102307.44;5110099;28;20020;-73
2022/03/22 10:21:53;;;;;;;19.30;14.35;;;;;;;21.86;19.21;102302.44;5109759;28;20019;-74
2022/03/22 10:24:19;;;;;;;19.75;14.45;;;;;;;21.26;19.44;102305.13;5111472;28;20023;-73
2022/03/22 10:26:46;;;;;;;28.90;13.45;;;;;;;20.79;19.97;102307.13;5109279;28;20047;-74
2022/03/22 10:29:16;;;;;;;20.73;13.82;;;;;;;20.40;19.82;102299.28;5109937;28;20028;-74
2022/03/22 10:31:43;;;;;;;17.88;13.80;;;;;;;20.09;20.11;102299.53;5107417;28;20023;-74
2022/03/22 10:34:11;;;;;;;20.58;13.30;;;;;;;19.81;20.33;102305.03;5109688;28;20027;-73
2022/03/22 10:36:38;;;;;;;19.88;13.30;;;;;;;19.53;20.94;102305.91;5111480;28;20645;-74
2022/03/22 10:39:09;;;;;;;22.85;13.82;;;;;;;19.16;21.05;102307.63;5111004;28;20421;-73
2022/03/22 10:41:41;;;;;;;21.75;14.00;;;;;;;18.82;21.65;102284.50;5109507;28;20481;-74
2022/03/22 10:44:18;;;;;;;20.90;14.70;;;;;;;18.69;21.83;102292.91;5110768;28;20099;-74
2022/03/22 10:46:46;;;;;;;17.50;14.10;;;;;;;18.55;22.21;102287.00;5109609;28;20031;-74
2022/03/22 10:49:15;;;;;;;18.02;14.25;;;;;;;18.53;21.88;102286.28;5109781;28;20092;-74
2022/03/22 10:51:45;;;;;;;22.52;14.70;;;;;;;18.48;22.31;102283.13;5109909;28;20483;-73
2022/03/22 10:54:17;;;;;;;26.55;12.88;;;;;;;18.26;22.03;102280.56;5109418;28;20042;-74
2022/03/22 10:56:47;;;;;;;19.45;12.27;;;;;;;18.05;22.30;102258.88;5109313;28;20024;-74
2022/03/22 10:59:15;;;;;;;21.38;12.25;;;;;;;18.16;22.15;102269.66;5110407;28;20034;-74
2022/03/22 11:01:42;;;;;;;21.40;13.45;;;;;;;18.13;22.41;102273.50;5109353;28;20027;-74
2022/03/22 11:04:09;;;;;;;19.33;12.13;;;;;;;18.05;22.36;102264.31;5110908;28;20102;-74
2022/03/22 11:06:37;;;;;;;18.05;12.38;;;;;;;17.91;22.11;102257.41;5109283;28;20549;-74
2022/03/22 11:09:03;;;;;;;19.92;11.90;;;;;;;17.86;22.37;102254.22;5109810;28;20073;-74
2022/03/22 11:11:32;;;;;;;19.52;11.68;;;;;;;17.78;22.94;102250.47;5103021;28;20031;-74
2022/03/22 11:13:59;;;;;;;16.55;11.75;;;;;;;17.73;22.76;102247.25;5104496;28;20451;-74
2022/03/22 11:16:29;;;;;;;19.30;11.60;;;;;;;17.60;22.34;102235.75;5104462;27;20114;-74
2022/03/22 11:18:59;;;;;;;16.75;10.02;;;;;;;17.57;23.09;102231.47;5109703;28;20016;-74
2022/03/22 11:21:25;;;;;;;16.30;10.77;;;;;;;17.47;22.85;102208.84;5108986;28;20053;-74
2022/03/22 11:23:52;;;;;;;17.55;11.68;;;;;;;17.56;22.88;102218.03;5111576;28;20417;-74
2022/03/22 11:26:20;;;;;;;17.58;11.43;;;;;;;17.46;23.25;102204.41;5112435;28;20047;-74
2022/03/22 11:28:48;;;;;;;16.77;11.13;;;;;;;17.49;23.23;102216.84;5109452;28;20064;-74
2022/03/22 11:31:16;;;;;;;19.80;10.95;;;;;;;17.39;23.53;102203.19;5112729;28;20080;-74
2022/03/22 11:36:38;;;;;;;19.45;11.57;;;;;;;17.54;22.96;102210.03;5111164;28;20092;-76
2022/03/22 11:39:04;;;;;;;16.00;11.30;;;;;;;17.50;23.29;102200.44;5110169;28;20031;-76